Terminal Aerodrome Forecast
Issued by NWS

Home | Current Version | Previous Version | Text Only | Print | Product List | Glossary On
Versions: 1 2 3 4 5 6 7 8 9 10 11 12 13 14 15 16 17 18 19 20 21
000
FTUS46 KSEW 311100
TAFOLM
TAF
KOLM 311120Z 3112/0112 19007KT P6SM SCT022 BKN080
      TEMPO 3112/3116 VRB03KT OVC022
     FM311700 19005KT P6SM SCT025 BKN050
     FM312000 23006KT P6SM SCT030 SCT050
     FM010000 26005KT P6SM SCT050
     FM011000 VRB03KT P6SM OVC018=

USA.gov is the U.S. government's official web portal to all federal, state and local government web resources and services.